Time;durP1;ratioP1;P1;durP2;ratioP2;P2;SDS_P1;SDS_P2;PMS_P1;PMS_P2;Temp;Humidity;BMP_temperature;BMP_pressure;BME280_temperature;BME280_humidity;BME280_pressure;Samples;Min_cycle;Max_cycle;Signal;HPM_P1;HPM_P2
2022/06/05 00:00:52;;;;;;;20.65;5.03;;;;;;;27.67;46.96;98352.69;5094342;28;20451;-48
2022/06/05 00:03:57;;;;;;;20.63;5.70;;;;;;;27.76;46.03;98360.75;5094427;28;20028;-48
2022/06/05 00:06:50;;;;;;;18.85;4.10;;;;;;;27.97;44.81;98372.44;5051942;28;20032;-49
2022/06/05 00:09:51;;;;;;;19.23;4.53;;;;;;;27.86;44.54;98374.66;5094285;28;20061;-48
2022/06/05 00:12:22;;;;;;;17.92;5.25;;;;;;;27.66;45.24;98378.84;5094114;28;20063;-49
2022/06/05 00:14:47;;;;;;;13.27;4.97;;;;;;;27.65;46.04;98385.34;5092876;28;20032;-49
2022/06/05 00:17:20;;;;;;;15.98;4.55;;;;;;;27.58;46.31;98392.34;5094059;28;20507;-49
2022/06/05 00:19:51;;;;;;;14.52;4.57;;;;;;;27.52;45.93;98399.00;5092633;28;20043;-49
2022/06/05 00:22:18;;;;;;;17.63;4.70;;;;;;;27.35;46.33;98406.00;5092695;28;20036;-49
2022/06/05 00:24:44;;;;;;;25.48;4.88;;;;;;;27.36;46.71;98417.56;5093972;28;20048;-49
2022/06/05 00:27:46;;;;;;;22.75;5.95;;;;;;;27.37;47.33;98419.16;5093853;28;20024;-49
2022/06/05 00:30:23;;;;;;;14.18;4.90;;;;;;;27.50;47.53;98418.97;5092513;28;20160;-49
2022/06/05 00:33:33;;;;;;;22.13;5.35;;;;;;;27.67;47.19;98434.34;5094054;28;20146;-49
2022/06/05 00:36:11;;;;;;;22.08;5.53;;;;;;;27.70;46.94;98441.00;5091722;28;20075;-49
2022/06/05 00:39:15;;;;;;;21.83;5.45;;;;;;;27.73;47.00;98448.47;5092418;28;20032;-48
2022/06/05 00:42:00;;;;;;;17.85;4.93;;;;;;;27.58;46.93;98459.75;5069511;28;20036;-49
2022/06/05 00:44:58;;;;;;;19.98;5.40;;;;;;;27.44;47.61;98470.69;5092299;28;20024;-49
2022/06/05 00:47:31;;;;;;;18.90;5.60;;;;;;;27.50;48.02;98472.09;5093509;28;20024;-49
2022/06/05 00:50:01;;;;;;;20.73;6.30;;;;;;;27.58;47.77;98481.31;5093503;28;20489;-49
2022/06/05 00:52:30;;;;;;;22.45;5.13;;;;;;;27.51;47.73;98484.50;5092128;28;20062;-49
2022/06/05 00:54:56;;;;;;;16.02;5.20;;;;;;;27.46;47.54;98492.72;5092045;28;20486;-49
2022/06/05 00:57:26;;;;;;;23.05;5.97;;;;;;;27.35;47.19;98496.84;5093292;28;20027;-49
2022/06/05 00:59:52;;;;;;;25.05;6.57;;;;;;;27.20;47.15;98498.84;5091786;28;20031;-49
2022/06/05 01:02:18;;;;;;;22.05;4.82;;;;;;;27.10;47.80;98512.59;5092747;28;20027;-49
2022/06/05 01:04:48;;;;;;;15.43;4.72;;;;;;;27.15;47.57;98515.16;5093163;28;20028;-48
2022/06/05 01:07:14;;;;;;;18.63;4.68;;;;;;;27.27;47.67;98525.38;5093045;28;20077;-49
2022/06/05 01:09:43;;;;;;;16.23;4.55;;;;;;;27.37;47.04;98535.84;5093334;28;20546;-49
2022/06/05 01:12:21;;;;;;;17.75;4.63;;;;;;;27.39;46.97;98549.00;5091765;28;20396;-49
2022/06/05 01:14:58;;;;;;;17.80;5.40;;;;;;;27.24;47.31;98547.53;5091724;28;20024;-48
2022/06/05 01:17:35;;;;;;;19.80;4.93;;;;;;;27.24;47.17;98567.19;5091602;28;20109;-49
2022/06/05 01:20:11;;;;;;;19.48;4.90;;;;;;;27.21;47.64;98578.56;5092804;28;20536;-49
2022/06/05 01:22:46;;;;;;;17.98;4.43;;;;;;;27.44;47.36;98559.63;5092800;28;20027;-48
2022/06/05 01:25:33;;;;;;;11.18;3.75;;;;;;;27.49;47.73;98559.50;5091494;28;20161;-48
2022/06/05 01:28:08;;;;;;;18.73;4.45;;;;;;;27.44;47.60;98581.19;5092708;28;20020;-48
2022/06/05 01:30:42;;;;;;;14.40;3.40;;;;;;;27.43;47.51;98575.00;5091314;28;20074;-49
2022/06/05 01:33:20;;;;;;;9.30;2.20;;;;;;;27.54;45.85;98567.41;5091397;28;20031;-48
2022/06/05 01:36:01;;;;;;;11.52;2.30;;;;;;;27.52;45.30;98563.44;5092389;28;20040;-48
2022/06/05 01:38:48;;;;;;;8.07;1.65;;;;;;;27.57;44.23;98560.59;5091602;28;20070;-48
2022/06/05 01:41:28;;;;;;;6.13;1.38;;;;;;;27.85;43.37;98574.59;5091066;28;20490;-49
2022/06/05 01:43:59;;;;;;;7.18;1.63;;;;;;;28.14;42.90;98562.38;5092445;28;20035;-49
2022/06/05 01:46:34;;;;;;;6.13;1.20;;;;;;;28.43;42.62;98561.66;5091101;28;20036;-48
2022/06/05 01:49:10;;;;;;;9.63;1.60;;;;;;;28.46;42.27;98566.44;5092428;28;20031;-49
2022/06/05 01:52:01;;;;;;;9.10;1.67;;;;;;;28.39;42.30;98580.44;5091017;28;20478;-49
2022/06/05 01:54:37;;;;;;;7.95;1.70;;;;;;;28.52;41.95;98575.19;5081137;28;20406;-49
2022/06/05 01:57:05;;;;;;;9.70;2.08;;;;;;;28.48;42.54;98570.38;5092262;28;20035;-49
2022/06/05 01:59:44;;;;;;;5.45;1.77;;;;;;;28.43;42.44;98581.38;5090876;28;20405;-49
2022/06/05 02:02:14;;;;;;;5.75;1.60;;;;;;;28.15;42.88;98588.22;5092173;28;20036;-49
2022/06/05 02:04:48;;;;;;;7.75;1.20;;;;;;;28.01;42.33;98583.00;5092245;28;20374;-49
2022/06/05 02:07:22;;;;;;;6.47;1.43;;;;;;;27.87;42.81;98588.56;5092133;28;20055;-49
2022/06/05 02:10:00;;;;;;;8.48;1.50;;;;;;;27.80;42.60;98593.59;5092179;28;20059;-49
2022/06/05 02:12:26;;;;;;;3.58;1.30;;;;;;;27.76;42.01;98595.34;5090719;28;20061;-48
2022/06/05 02:14:52;;;;;;;3.25;1.20;;;;;;;27.70;42.17;98595.50;5090703;28;20456;-49
2022/06/05 02:17:18;;;;;;;5.85;0.90;;;;;;;27.65;41.83;98592.97;5091984;28;20028;-49
2022/06/05 02:19:44;;;;;;;1.83;0.90;;;;;;;27.72;41.65;98603.28;5090587;28;20484;-49
2022/06/05 02:22:23;;;;;;;4.47;0.93;;;;;;;27.64;42.14;98596.75;5090579;28;20028;-49
2022/06/05 02:24:49;;;;;;;4.85;1.02;;;;;;;27.59;42.14;98606.91;5091865;28;20044;-49
2022/06/05 02:27:21;;;;;;;8.13;1.45;;;;;;;27.37;42.16;98605.13;5090502;28;20300;-49
2022/06/05 02:29:47;;;;;;;2.40;0.93;;;;;;;27.21;42.83;98608.22;5091916;28;20042;-49
2022/06/05 02:32:31;;;;;;;4.32;1.23;;;;;;;27.16;42.76;98605.66;5091815;28;20024;-49
2022/06/05 02:35:15;;;;;;;2.95;0.98;;;;;;;27.05;43.16;98607.06;5091939;28;20035;-49
2022/06/05 02:37:59;;;;;;;3.58;1.13;;;;;;;26.96;43.04;98606.22;5090309;28;20471;-48
2022/06/05 02:40:33;;;;;;;2.53;0.80;;;;;;;26.93;43.56;98610.31;5090391;28;20046;-48
2022/06/05 02:43:07;;;;;;;6.22;1.08;;;;;;;26.93;43.54;98606.84;5090477;28;20040;-49
2022/06/05 02:45:57;;;;;;;3.87;0.83;;;;;;;26.93;43.73;98609.53;5091768;28;20028;-49
2022/06/05 02:48:26;;;;;;;1.52;0.60;;;;;;;26.92;43.59;98608.72;5090429;28;20070;-49
2022/06/05 02:51:05;;;;;;;4.18;0.95;;;;;;;26.81;43.71;98602.81;5091697;28;20063;-48
2022/06/05 02:53:51;;;;;;;5.18;1.13;;;;;;;26.52;44.80;98608.63;5090347;28;20036;-47
2022/06/05 02:56:18;;;;;;;7.90;1.92;;;;;;;26.38;45.04;98605.22;5090292;28;20028;-47
2022/06/05 02:58:48;;;;;;;9.02;1.10;;;;;;;26.33;45.39;98603.47;5091605;28;20020;-47
2022/06/05 03:03:58;;;;;;;7.37;1.37;;;;;;;26.37;46.73;98593.69;5091861;28;20035;-47
2022/06/05 03:06:24;;;;;;;8.50;1.83;;;;;;;26.38;46.94;98597.16;5091483;28;20016;-47
2022/06/05 03:08:50;;;;;;;7.30;1.73;;;;;;;26.26;47.19;98595.03;5090308;28;20052;-48
2022/06/05 03:11:16;;;;;;;6.60;1.65;;;;;;;25.88;47.85;98606.91;5091495;28;20505;-47
2022/06/05 03:13:41;;;;;;;4.07;2.00;;;;;;;25.69;48.58;98598.97;5091442;28;20074;-48
2022/06/05 03:16:08;;;;;;;8.77;1.95;;;;;;;25.68;48.83;98589.31;5091445;28;20572;-47
2022/06/05 03:18:34;;;;;;;5.45;1.60;;;;;;;25.62;48.57;98584.38;5091449;28;20031;-47
2022/06/05 03:21:00;;;;;;;5.35;1.95;;;;;;;25.43;47.57;98579.91;5090029;28;20070;-47
2022/06/05 03:23:26;;;;;;;4.05;1.25;;;;;;;25.28;47.87;98591.75;5090384;28;20024;-47
2022/06/05 03:25:52;;;;;;;6.55;1.50;;;;;;;25.27;47.74;98589.38;5095064;28;20493;-47
2022/06/05 03:28:18;;;;;;;5.15;1.92;;;;;;;25.29;47.52;98587.19;5093724;28;20059;-47
2022/06/05 03:30:45;;;;;;;7.82;1.30;;;;;;;25.36;47.14;98589.47;5093675;28;20470;-47
2022/06/05 03:33:14;;;;;;;10.82;1.52;;;;;;;25.47;46.55;98588.16;5094943;28;20393;-47
2022/06/05 03:35:42;;;;;;;8.30;1.30;;;;;;;25.52;46.85;98599.59;5093376;28;20070;-47
2022/06/05 03:38:09;;;;;;;13.88;1.85;;;;;;;25.61;46.45;98599.66;5094911;28;20038;-47
2022/06/05 03:40:38;;;;;;;6.22;1.10;;;;;;;25.74;45.62;98595.38;5076705;28;20405;-48
2022/06/05 03:43:04;;;;;;;7.28;1.55;;;;;;;25.57;45.98;98596.00;5094720;28;20020;-47
2022/06/05 03:45:30;;;;;;;8.68;2.33;;;;;;;25.51;46.11;98591.84;5093514;28;20050;-47
2022/06/05 03:47:56;;;;;;;6.15;1.10;;;;;;;25.54;45.78;98579.69;5093360;28;20046;-47
2022/06/05 03:50:22;;;;;;;2.20;0.90;;;;;;;25.37;45.77;98573.03;5093432;28;20036;-47
2022/06/05 03:52:48;;;;;;;5.18;1.05;;;;;;;25.26;46.02;98577.03;5094625;28;20032;-47
2022/06/05 03:55:21;;;;;;;9.40;1.38;;;;;;;25.24;46.43;98574.66;5093261;28;20080;-47
2022/06/05 03:57:48;;;;;;;6.80;1.45;;;;;;;25.25;46.09;98565.50;5093286;28;20108;-48
2022/06/05 04:00:15;;;;;;;6.57;1.45;;;;;;;25.22;46.30;98559.94;5094350;28;20028;-47
2022/06/05 04:02:42;;;;;;;4.20;1.38;;;;;;;25.19;46.37;98550.53;5076498;28;20028;-47
2022/06/05 04:05:09;;;;;;;6.68;1.20;;;;;;;25.03;46.71;98551.94;5093035;28;20020;-47
2022/06/05 04:07:35;;;;;;;5.22;1.23;;;;;;;24.87;47.06;98554.13;5093040;28;20024;-47
2022/06/05 04:10:01;;;;;;;6.72;1.10;;;;;;;24.78;47.64;98545.97;5092967;28;20038;-47
2022/06/05 04:12:26;;;;;;;8.43;1.20;;;;;;;24.76;47.86;98537.44;5093206;28;20028;-47
2022/06/05 04:14:52;;;;;;;9.35;2.03;;;;;;;24.85;48.50;98532.97;5092829;28;20046;-47
2022/06/05 04:17:18;;;;;;;9.10;2.33;;;;;;;25.02;48.25;98524.31;5092786;28;20022;-48
2022/06/05 04:19:43;;;;;;;4.80;1.45;;;;;;;24.95;48.16;98529.28;5092686;28;20024;-46
2022/06/05 04:22:09;;;;;;;14.85;2.53;;;;;;;24.84;48.99;98517.94;5092660;28;20110;-47
2022/06/05 04:24:38;;;;;;;9.32;2.10;;;;;;;24.82;49.32;98525.50;5093993;28;20024;-47
2022/06/05 04:27:04;;;;;;;5.22;1.20;;;;;;;24.87;49.05;98530.78;5092578;28;20509;-48
2022/06/05 04:29:32;;;;;;;4.50;1.10;;;;;;;24.81;48.68;98540.03;5093940;28;20074;-47
2022/06/05 04:31:58;;;;;;;5.15;1.60;;;;;;;24.59;49.25;98547.94;5093851;28;20028;-47
2022/06/05 04:34:24;;;;;;;8.38;1.30;;;;;;;24.33;49.78;98556.41;5092316;28;20571;-48
2022/06/05 04:36:50;;;;;;;3.47;1.20;;;;;;;24.27;50.00;98573.69;5092482;28;20044;-47
2022/06/05 04:39:16;;;;;;;4.53;1.20;;;;;;;24.30;50.22;98568.50;5093713;28;20053;-47
2022/06/05 04:41:42;;;;;;;4.35;0.90;;;;;;;24.42;50.06;98573.41;5092238;28;20032;-47
2022/06/05 04:44:11;;;;;;;7.82;1.00;;;;;;;24.67;49.84;98577.59;5092218;28;20077;-48
2022/06/05 04:46:37;;;;;;;7.78;1.40;;;;;;;25.00;49.35;98582.09;5092250;28;20076;-47
2022/06/05 04:49:06;;;;;;;7.88;1.45;;;;;;;25.32;48.52;98589.28;5093449;28;20103;-47
2022/06/05 04:51:33;;;;;;;10.55;1.58;;;;;;;25.51;48.31;98599.88;5093429;28;20442;-48
2022/06/05 04:54:01;;;;;;;11.63;1.67;;;;;;;25.93;47.66;98613.28;5092019;28;20032;-47
2022/06/05 04:56:28;;;;;;;10.80;2.30;;;;;;;26.40;46.73;98620.00;5093346;28;20028;-48
2022/06/05 04:58:55;;;;;;;9.75;1.70;;;;;;;26.60;45.93;98625.97;5093323;28;20065;-47
2022/06/05 05:01:25;;;;;;;6.80;1.52;;;;;;;26.70;45.61;98640.00;5091833;28;20032;-48
2022/06/05 05:03:54;;;;;;;4.28;1.13;;;;;;;26.71;45.51;98648.88;5093451;28;20051;-48
2022/06/05 05:06:20;;;;;;;7.70;2.47;;;;;;;26.85;44.93;98659.56;5092104;28;20119;-48
2022/06/05 05:08:46;;;;;;;4.13;0.88;;;;;;;26.76;44.48;98650.63;5091757;28;20024;-48
2022/06/05 05:11:12;;;;;;;5.18;1.48;;;;;;;26.64;44.93;98643.09;5093067;28;20081;-47
2022/06/05 05:13:37;;;;;;;4.65;1.20;;;;;;;26.26;45.44;98641.56;5093005;28;20020;-47
2022/06/05 05:16:04;;;;;;;8.45;1.60;;;;;;;25.93;46.54;98642.88;5091619;28;20024;-47
2022/06/05 05:18:30;;;;;;;6.90;1.33;;;;;;;25.95;46.72;98652.22;5091646;28;20020;-48
2022/06/05 05:21:04;;;;;;;5.47;1.27;;;;;;;26.18;46.70;98655.75;5091460;28;20118;-47
2022/06/05 05:23:30;;;;;;;5.20;1.27;;;;;;;26.29;46.46;98643.63;5092834;28;20028;-48
2022/06/05 05:25:55;;;;;;;7.03;1.27;;;;;;;26.32;46.53;98636.88;5091415;28;20028;-47
2022/06/05 05:28:22;;;;;;;7.70;1.48;;;;;;;26.26;46.46;98636.19;5092738;28;20059;-48
2022/06/05 05:30:47;;;;;;;8.55;1.10;;;;;;;26.20;46.81;98644.66;5092868;28;20439;-47
2022/06/05 05:33:14;;;;;;;3.88;1.23;;;;;;;26.23;46.90;98650.22;5074530;28;20533;-47
2022/06/05 05:35:40;;;;;;;5.30;1.13;;;;;;;26.33;46.85;98646.50;5074184;28;20024;-47
2022/06/05 05:38:06;;;;;;;5.28;1.00;;;;;;;26.59;46.45;98617.13;5091258;28;20023;-47
2022/06/05 05:43:16;;;;;;;7.60;1.33;;;;;;;26.93;45.79;98617.63;5092526;28;20034;-47
2022/06/05 05:45:41;;;;;;;10.98;2.60;;;;;;;27.06;45.39;98614.00;5092430;28;20024;-49
2022/06/05 05:48:09;;;;;;;5.63;1.20;;;;;;;27.43;44.70;98609.25;5090799;28;20176;-48
2022/06/05 05:50:35;;;;;;;4.55;1.17;;;;;;;28.02;43.34;98614.28;5092385;28;20513;-48
2022/06/05 05:53:00;;;;;;;2.95;1.20;;;;;;;28.53;42.07;98620.75;5092324;28;20020;-49
2022/06/05 05:55:26;;;;;;;4.50;1.13;;;;;;;28.24;42.92;98624.91;5090997;28;20172;-48
2022/06/05 05:57:52;;;;;;;9.70;1.38;;;;;;;27.90;43.23;98612.19;5092198;28;20031;-49
2022/06/05 06:00:20;;;;;;;6.75;1.40;;;;;;;27.82;43.28;98613.75;5090800;28;20043;-48
2022/06/05 06:02:46;;;;;;;9.00;1.42;;;;;;;27.43;44.14;98609.25;5090894;28;20052;-47
2022/06/05 06:05:15;;;;;;;3.45;1.40;;;;;;;26.92;45.37;98607.94;5090802;28;20454;-48
2022/06/05 06:07:41;;;;;;;4.38;1.73;;;;;;;26.67;45.85;98623.66;5092362;28;20051;-47
2022/06/05 06:10:08;;;;;;;2.47;1.10;;;;;;;26.49;46.31;98628.91;5092070;28;20531;-46
2022/06/05 06:12:34;;;;;;;9.45;2.28;;;;;;;26.39;46.83;98628.34;5092087;28;20065;-46
2022/06/05 06:15:00;;;;;;;13.43;2.53;;;;;;;26.37;47.09;98627.88;5090797;28;20035;-47
2022/06/05 06:17:26;;;;;;;4.47;1.55;;;;;;;26.13;47.24;98639.72;5092037;28;20016;-47
2022/06/05 06:19:52;;;;;;;13.18;1.48;;;;;;;26.20;47.75;98660.81;5091637;28;20028;-46
2022/06/05 06:22:18;;;;;;;7.57;1.33;;;;;;;26.37;47.27;98649.41;5091943;28;20536;-48
2022/06/05 06:24:44;;;;;;;4.38;1.23;;;;;;;26.38;47.07;98638.34;5090618;28;20024;-49
2022/06/05 06:27:10;;;;;;;14.52;1.50;;;;;;;26.37;47.31;98655.56;5091902;28;20599;-49
2022/06/05 06:29:35;;;;;;;5.90;1.17;;;;;;;26.28;47.53;98668.97;5091904;28;20032;-49
2022/06/05 06:32:01;;;;;;;6.95;1.08;;;;;;;26.30;47.97;98679.44;5091806;28;20039;-49
2022/06/05 06:34:27;;;;;;;9.10;1.50;;;;;;;26.59;48.02;98670.94;5091821;28;20027;-48
2022/06/05 06:36:53;;;;;;;8.63;2.05;;;;;;;26.43;48.09;98677.78;5091551;28;20052;-48
2022/06/05 06:39:20;;;;;;;20.20;2.58;;;;;;;26.20;49.90;98679.63;5091744;28;20012;-49
2022/06/05 06:41:46;;;;;;;8.27;1.60;;;;;;;26.09;49.90;98658.34;5090334;28;20024;-49
2022/06/05 06:44:12;;;;;;;3.80;1.25;;;;;;;25.78;50.68;98652.03;5091795;28;20117;-48
2022/06/05 06:46:38;;;;;;;8.63;1.23;;;;;;;25.58;51.88;98658.63;5091675;28;20024;-48
2022/06/05 06:49:05;;;;;;;4.15;2.17;;;;;;;25.45;53.29;98655.63;5091679;28;20547;-49
2022/06/05 06:51:31;;;;;;;9.45;4.45;;;;;;;24.98;55.27;98659.47;5091703;28;20401;-49
2022/06/05 06:53:57;;;;;;;9.27;4.75;;;;;;;24.55;58.68;98667.69;5091606;28;20099;-48
2022/06/05 06:56:27;;;;;;;13.30;3.55;;;;;;;24.03;62.12;98691.75;5091560;28;20103;-49
2022/06/05 06:58:54;;;;;;;13.50;2.25;;;;;;;23.72;62.82;98698.28;5092694;28;20382;-49
2022/06/05 07:01:20;;;;;;;16.15;6.18;;;;;;;23.22;65.35;98705.78;5094154;28;20081;-47
2022/06/05 07:03:49;;;;;;;19.27;3.30;;;;;;;22.94;67.59;98718.84;5095786;28;20020;-48
2022/06/05 07:06:16;;;;;;;23.90;3.60;;;;;;;22.67;69.31;98723.88;5095749;28;20111;-48
2022/06/05 07:08:44;;;;;;;7.78;2.67;;;;;;;22.39;69.99;98715.47;5095461;28;20059;-48
2022/06/05 07:11:11;;;;;;;11.98;3.15;;;;;;;22.17;70.70;98701.69;5095415;28;20394;-48
2022/06/05 07:13:37;;;;;;;9.95;2.72;;;;;;;22.11;71.08;98706.25;5095354;28;20051;-48
2022/06/05 07:16:06;;;;;;;11.38;2.53;;;;;;;22.22;70.85;98691.78;5093996;28;20055;-48
2022/06/05 07:18:32;;;;;;;4.75;1.55;;;;;;;22.65;69.61;98675.97;5093974;28;20024;-47
2022/06/05 07:21:05;;;;;;;8.27;2.10;;;;;;;23.16;66.00;98668.59;5095098;28;20451;-48
2022/06/05 07:23:31;;;;;;;7.65;1.67;;;;;;;23.44;63.98;98665.09;5095253;28;20020;-48
2022/06/05 07:25:57;;;;;;;10.00;2.00;;;;;;;25.23;61.99;98656.34;5095049;28;20043;-48
2022/06/05 07:28:22;;;;;;;20.65;6.93;;;;;;;27.82;54.54;98642.63;5095057;28;20058;-48
2022/06/05 07:30:49;;;;;;;8.00;3.08;;;;;;;28.76;50.43;98634.06;5093665;28;20031;-48
2022/06/05 07:33:16;;;;;;;27.02;17.17;;;;;;;28.80;50.03;98635.00;5093653;28;20016;-48
2022/06/05 07:35:42;;;;;;;11.15;2.78;;;;;;;28.05;50.72;98644.13;5093341;28;20075;-48
2022/06/05 07:38:09;;;;;;;6.53;2.10;;;;;;;27.35;51.34;98637.78;5094917;28;20077;-48
2022/06/05 07:40:42;;;;;;;10.65;2.83;;;;;;;26.90;52.87;98637.88;5094720;28;20063;-48
2022/06/05 07:43:10;;;;;;;6.50;2.00;;;;;;;26.38;53.04;98643.72;5093442;28;20019;-48
2022/06/05 07:45:44;;;;;;;7.22;1.70;;;;;;;25.66;54.03;98647.97;5094702;28;20020;-49
2022/06/05 07:48:09;;;;;;;6.33;1.97;;;;;;;25.08;55.62;98661.97;5094762;28;20145;-49
2022/06/05 07:54:26;;;;;;;5.30;2.13;;;;;;;24.70;56.85;98684.34;5093293;28;20020;-48
2022/06/05 07:56:05;;;;;;;5.78;1.80;;;;;;;24.29;58.48;98676.91;5094560;28;20476;-48
2022/06/05 07:58:33;;;;;;;6.68;2.00;;;;;;;24.07;58.64;98672.09;5094535;28;20023;-48
2022/06/05 08:00:59;;;;;;;8.90;2.00;;;;;;;23.90;59.40;98677.16;5094443;28;20573;-49
2022/06/05 08:03:24;;;;;;;6.28;1.85;;;;;;;23.78;60.25;98674.09;5094427;28;20035;-48
2022/06/05 08:05:50;;;;;;;10.85;2.08;;;;;;;23.89;60.89;98657.59;5092977;28;20020;-49
2022/06/05 08:08:16;;;;;;;4.03;1.52;;;;;;;24.01;60.03;98610.81;5094363;28;20055;-48
2022/06/05 08:10:41;;;;;;;5.38;1.67;;;;;;;23.99;59.68;98586.19;5094304;28;20055;-49
2022/06/05 08:13:08;;;;;;;5.38;1.75;;;;;;;23.94;60.06;98597.75;5094262;28;20504;-48
2022/06/05 08:15:34;;;;;;;8.50;2.70;;;;;;;23.92;60.57;98642.81;5094041;28;20025;-49
2022/06/05 08:18:00;;;;;;;7.10;2.03;;;;;;;23.97;60.14;98693.69;5094212;28;20039;-48
2022/06/05 08:20:25;;;;;;;6.47;1.70;;;;;;;23.85;60.15;98706.72;5093976;28;20478;-49
2022/06/05 08:22:51;;;;;;;11.50;2.90;;;;;;;23.63;60.80;98705.34;5092715;28;20042;-48
2022/06/05 08:25:19;;;;;;;6.70;2.10;;;;;;;23.63;60.71;98699.97;5094269;28;20020;-49
2022/06/05 08:27:46;;;;;;;6.13;2.13;;;;;;;23.66;60.48;98695.91;5093897;28;20024;-48
2022/06/05 08:30:12;;;;;;;5.80;1.75;;;;;;;23.59;60.77;98685.56;5094040;28;20035;-48
2022/06/05 08:32:38;;;;;;;8.77;2.00;;;;;;;23.64;60.78;98684.69;5093838;28;20111;-48
2022/06/05 08:35:07;;;;;;;6.47;1.55;;;;;;;23.85;59.75;98670.00;5093800;28;20103;-47
2022/06/05 08:43:46;;;;;;;9.18;2.42;;;;;;;27.62;52.00;98665.59;5071083;28;20040;-47
2022/06/05 08:46:23;;;;;;;11.77;2.83;;;;;;;30.81;45.62;98680.56;5070442;28;20052;-48
2022/06/05 08:49:03;;;;;;;7.28;1.75;;;;;;;32.38;40.94;98679.28;5071122;28;20039;-48
2022/06/05 08:51:43;;;;;;;3.80;1.50;;;;;;;32.87;38.96;98680.97;5071028;28;20047;-48
2022/06/05 08:54:23;;;;;;;4.20;1.10;;;;;;;34.57;35.51;98680.94;5071124;28;20119;-48
2022/06/05 08:57:08;;;;;;;2.78;1.02;;;;;;;36.65;31.48;98675.09;5070942;28;20037;-48
2022/06/05 08:59:55;;;;;;;3.38;1.40;;;;;;;37.64;28.70;98673.59;5054234;28;20040;-47
2022/06/05 09:02:41;;;;;;;3.90;1.15;;;;;;;37.22;27.42;98674.84;5070896;28;20044;-48
2022/06/05 09:05:16;;;;;;;6.53;1.27;;;;;;;36.80;28.48;98682.25;5070846;28;20033;-48
2022/06/05 09:07:46;;;;;;;3.53;0.80;;;;;;;37.34;26.88;98688.22;5070724;28;20048;-49
2022/06/05 09:10:15;;;;;;;6.03;1.23;;;;;;;37.51;26.48;98692.22;5053857;28;20037;-48
2022/06/05 09:13:01;;;;;;;6.15;2.50;;;;;;;37.28;27.30;98678.78;5070492;28;20042;-48
2022/06/05 09:15:36;;;;;;;3.05;1.00;;;;;;;37.50;26.31;98685.19;5070622;28;20025;-49
2022/06/05 09:18:12;;;;;;;8.32;1.75;;;;;;;37.44;27.09;98679.28;5070526;28;20028;-49
2022/06/05 09:20:51;;;;;;;5.05;1.50;;;;;;;36.76;27.95;98671.31;5090534;28;20059;-50
2022/06/05 09:23:23;;;;;;;2.85;1.17;;;;;;;36.51;28.29;98681.94;5092501;28;20391;-50
2022/06/05 09:26:12;;;;;;;2.72;1.17;;;;;;;37.04;27.84;98683.66;5091532;28;20070;-49
2022/06/05 09:29:09;;;;;;;4.97;1.90;;;;;;;37.75;26.98;98680.69;5074682;28;20028;-49
2022/06/05 09:31:51;;;;;;;3.38;1.50;;;;;;;37.72;27.31;98670.50;5092710;28;20085;-49
2022/06/05 09:34:26;;;;;;;8.00;1.77;;;;;;;38.02;27.06;98674.16;5092797;28;20032;-49
2022/06/05 09:37:14;;;;;;;4.90;1.40;;;;;;;38.26;26.28;98676.25;5058114;28;20417;-50
2022/06/05 09:39:52;;;;;;;8.00;1.48;;;;;;;38.14;26.19;98671.13;5092565;28;20494;-49
2022/06/05 09:42:36;;;;;;;4.47;1.40;;;;;;;37.57;26.75;98674.31;5092488;28;20564;-49
2022/06/05 09:45:06;;;;;;;6.47;1.98;;;;;;;37.07;27.66;98673.91;5092838;28;20031;-48
2022/06/05 09:47:58;;;;;;;11.77;2.42;;;;;;;36.92;28.23;98678.47;5092400;28;20040;-48
2022/06/05 09:50:29;;;;;;;7.05;1.70;;;;;;;37.09;27.20;98688.00;5092466;28;20028;-48
2022/06/05 09:52:56;;;;;;;5.63;1.30;;;;;;;37.43;26.69;98687.88;5092665;28;20457;-48
2022/06/05 09:55:59;;;;;;;4.05;1.48;;;;;;;37.62;26.88;98695.09;5091030;28;20393;-49
2022/06/05 09:58:34;;;;;;;13.80;1.85;;;;;;;37.68;25.69;98688.09;5092573;28;20036;-49
2022/06/05 10:01:28;;;;;;;8.32;2.75;;;;;;;37.81;26.16;98691.28;5090957;28;20050;-49
2022/06/05 10:03:56;;;;;;;;;;;;;;;38.01;25.74;98691.75;5092657;28;20077;-48
2022/06/05 10:06:34;;;;;;;5.13;1.20;;;;;;;38.26;25.47;98686.44;5092113;28;19916;-49
2022/06/05 10:09:00;;;;;;;5.22;1.58;;;;;;;38.65;24.95;98681.06;5092442;28;20024;-50
2022/06/05 10:11:44;;;;;;;7.72;1.75;;;;;;;38.74;25.28;98692.44;5092068;28;20493;-50
2022/06/05 10:14:25;;;;;;;6.05;1.73;;;;;;;38.51;25.38;98691.97;5092094;28;20051;-50
2022/06/05 10:17:14;;;;;;;9.05;2.72;;;;;;;38.76;25.60;98690.09;5092075;28;20036;-49
2022/06/05 10:19:41;;;;;;;3.25;1.40;;;;;;;39.32;24.38;98685.06;5092003;28;20541;-50
2022/06/05 10:22:20;;;;;;;7.25;1.15;;;;;;;39.75;23.62;98684.22;5092082;28;20409;-51
2022/06/05 10:24:55;;;;;;;4.90;1.60;;;;;;;40.24;23.39;98684.44;5092263;28;20371;-49
2022/06/05 10:27:22;;;;;;;5.30;1.60;;;;;;;40.84;22.74;98688.06;5091963;28;20089;-49
2022/06/05 10:29:53;;;;;;;4.90;1.45;;;;;;;40.73;22.60;98683.38;5090570;28;20043;-48
2022/06/05 10:32:58;;;;;;;7.75;2.03;;;;;;;41.29;22.47;98671.56;5092112;28;20512;-48
2022/06/05 10:35:31;;;;;;;5.97;1.35;;;;;;;41.74;21.69;98671.53;5095908;28;20028;-48
2022/06/05 10:38:11;;;;;;;4.20;1.10;;;;;;;41.38;21.81;98674.66;5096120;28;20028;-51
2022/06/05 10:40:48;;;;;;;4.13;1.52;;;;;;;41.79;21.56;98682.09;5095927;28;20032;-52
2022/06/05 10:43:22;;;;;;;4.95;1.30;;;;;;;42.49;21.00;98681.66;5096037;28;20028;-52
2022/06/05 10:46:01;;;;;;;4.68;1.00;;;;;;;42.81;20.29;98676.84;5094640;28;20486;-51
2022/06/05 10:48:50;;;;;;;4.28;1.42;;;;;;;42.67;19.98;98666.81;5095833;28;20024;-52
2022/06/05 10:51:35;;;;;;;8.25;1.40;;;;;;;42.94;20.00;98679.81;5095858;28;20030;-52
2022/06/05 10:54:33;;;;;;;4.82;1.30;;;;;;;43.34;19.75;98680.72;5095985;28;20066;-51
2022/06/05 10:57:15;;;;;;;5.78;1.48;;;;;;;42.61;19.68;98679.53;5094446;28;20024;-52
2022/06/05 11:00:03;;;;;;;5.13;1.38;;;;;;;41.08;21.19;98681.56;5095689;28;20032;-52
2022/06/05 11:02:54;;;;;;;4.80;1.40;;;;;;;41.05;21.42;98667.81;5095626;28;20034;-51
2022/06/05 11:05:49;;;;;;;11.73;3.25;;;;;;;41.85;20.98;98674.94;5095632;28;20031;-51
2022/06/05 11:08:24;;;;;;;4.53;1.33;;;;;;;41.95;20.13;98666.97;5086605;28;20032;-52
2022/06/05 11:14:19;;;;;;;3.72;1.40;;;;;;;41.49;20.62;98653.28;5095696;28;20051;-53
2022/06/05 11:17:14;;;;;;;9.93;1.90;;;;;;;40.80;21.50;98646.03;5095265;28;20111;-51
2022/06/05 11:19:59;;;;;;;9.85;4.13;;;;;;;40.18;22.81;98642.81;5088273;28;20044;-51
2022/06/05 11:22:26;;;;;;;9.93;3.15;;;;;;;39.92;22.40;98633.13;5093885;28;20027;-52
2022/06/05 11:24:57;;;;;;;5.55;1.50;;;;;;;39.81;22.49;98646.13;5095193;28;20095;-51
2022/06/05 11:27:33;;;;;;;12.38;3.30;;;;;;;39.73;22.21;98640.63;5093817;28;20036;-51
2022/06/05 11:30:18;;;;;;;5.65;1.38;;;;;;;39.78;22.17;98639.44;5093812;28;20089;-51
2022/06/05 11:33:03;;;;;;;6.05;1.63;;;;;;;39.98;22.45;98637.03;5095119;28;20485;-51
2022/06/05 11:35:53;;;;;;;6.28;1.80;;;;;;;39.87;22.28;98644.56;5094713;28;20575;-51
2022/06/05 11:38:50;;;;;;;5.30;1.73;;;;;;;40.14;21.76;98647.56;5094853;28;20028;-52
2022/06/05 11:41:45;;;;;;;10.60;2.60;;;;;;;40.50;22.12;98653.66;5094879;28;20024;-51
2022/06/05 11:44:32;;;;;;;5.35;2.42;;;;;;;40.86;21.65;98650.69;5063586;28;20032;-51
2022/06/05 11:47:08;;;;;;;4.90;1.67;;;;;;;41.05;21.50;98651.31;5094827;28;20048;-52
2022/06/05 11:50:09;;;;;;;5.80;1.73;;;;;;;41.14;21.33;98643.38;5094662;28;20016;-53
2022/06/05 11:53:01;;;;;;;5.05;1.33;;;;;;;41.43;20.93;98641.13;5093245;28;20122;-52
2022/06/05 11:55:44;;;;;;;4.60;1.80;;;;;;;41.66;20.56;98626.75;5094627;28;20038;-53
2022/06/05 11:58:49;;;;;;;9.07;2.43;;;;;;;41.96;20.46;98629.91;5094633;28;20028;-52
2022/06/05 12:01:20;;;;;;;5.32;1.40;;;;;;;42.32;19.91;98635.78;5085545;28;20036;-53
2022/06/05 12:04:05;;;;;;;5.65;1.33;;;;;;;42.77;18.94;98627.22;5093146;28;20474;-52
2022/06/05 12:06:58;;;;;;;4.63;1.88;;;;;;;42.53;20.00;98623.66;5094438;28;20028;-52
2022/06/05 12:09:29;;;;;;;3.22;1.38;;;;;;;41.97;19.96;98626.75;5091937;28;20036;-51
2022/06/05 12:11:58;;;;;;;6.82;1.48;;;;;;;41.95;20.05;98633.88;5094315;28;20066;-52
2022/06/05 12:14:23;;;;;;;4.68;1.38;;;;;;;42.05;19.45;98632.97;5094246;28;20024;-50
2022/06/05 12:17:06;;;;;;;7.60;1.48;;;;;;;42.61;19.08;98625.09;5094153;28;20085;-51